sensor_id;sensor_type;location;lat;lon;timestamp;pressure;altitude;pressure_sealevel;temperature;humidity
29907;BME280;16776;50.958;10.994;2024-02-26T00:00:52;97039.50;;;1.98;85.36
29907;BME280;16776;50.958;10.994;2024-02-26T00:03:19;97032.75;;;1.97;85.68
29907;BME280;16776;50.958;10.994;2024-02-26T00:05:45;97036.94;;;1.98;86.01
29907;BME280;16776;50.958;10.994;2024-02-26T00:08:13;97032.69;;;2.00;85.87
29907;BME280;16776;50.958;10.994;2024-02-26T00:10:40;97031.00;;;1.99;85.81
29907;BME280;16776;50.958;10.994;2024-02-26T00:13:08;97027.63;;;2.00;86.18
29907;BME280;16776;50.958;10.994;2024-02-26T00:15:34;97031.84;;;2.01;86.56
29907;BME280;16776;50.958;10.994;2024-02-26T00:18:01;97027.56;;;2.03;86.22
29907;BME280;16776;50.958;10.994;2024-02-26T00:20:27;97033.44;;;2.05;86.66
29907;BME280;16776;50.958;10.994;2024-02-26T00:22:54;97030.03;;;2.06;86.76
29907;BME280;16776;50.958;10.994;2024-02-26T00:25:22;97018.13;;;2.09;86.83
29907;BME280;16776;50.958;10.994;2024-02-26T00:27:48;97014.75;;;2.10;86.18
29907;BME280;16776;50.958;10.994;2024-02-26T00:30:15;97017.22;;;2.12;86.21
29907;BME280;16776;50.958;10.994;2024-02-26T00:32:41;97008.78;;;2.11;86.29
29907;BME280;16776;50.958;10.994;2024-02-26T00:35:08;97002.91;;;2.09;86.53
29907;BME280;16776;50.958;10.994;2024-02-26T00:37:36;97004.66;;;2.06;86.17
29907;BME280;16776;50.958;10.994;2024-02-26T00:40:02;97008.00;;;2.08;86.65
29907;BME280;16776;50.958;10.994;2024-02-26T00:42:30;97008.81;;;2.10;86.40
29907;BME280;16776;50.958;10.994;2024-02-26T00:44:57;96989.50;;;2.03;86.53
29907;BME280;16776;50.958;10.994;2024-02-26T00:47:23;96997.06;;;2.04;86.42
29907;BME280;16776;50.958;10.994;2024-02-26T00:49:50;97002.19;;;2.03;86.25
29907;BME280;16776;50.958;10.994;2024-02-26T00:52:16;96998.81;;;2.02;85.71
29907;BME280;16776;50.958;10.994;2024-02-26T00:54:43;96999.69;;;2.00;86.35
29907;BME280;16776;50.958;10.994;2024-02-26T00:57:10;97008.16;;;1.99;85.84
29907;BME280;16776;50.958;10.994;2024-02-26T00:59:38;97003.09;;;1.99;86.41
29907;BME280;16776;50.958;10.994;2024-02-26T01:02:04;96996.41;;;1.95;86.38
29907;BME280;16776;50.958;10.994;2024-02-26T01:04:32;96994.72;;;1.94;85.85
29907;BME280;16776;50.958;10.994;2024-02-26T01:06:59;96998.19;;;1.91;86.47
29907;BME280;16776;50.958;10.994;2024-02-26T01:09:25;96992.25;;;1.91;86.08
29907;BME280;16776;50.958;10.994;2024-02-26T01:11:52;96991.44;;;1.89;86.51
29907;BME280;16776;50.958;10.994;2024-02-26T01:14:19;96994.00;;;1.87;86.38
29907;BME280;16776;50.958;10.994;2024-02-26T01:16:46;96999.91;;;1.88;86.02
29907;BME280;16776;50.958;10.994;2024-02-26T01:19:13;96996.59;;;1.84;86.23
29907;BME280;16776;50.958;10.994;2024-02-26T01:21:40;96992.38;;;1.84;86.40
29907;BME280;16776;50.958;10.994;2024-02-26T01:24:07;96994.09;;;1.82;85.86
29907;BME280;16776;50.958;10.994;2024-02-26T01:26:34;96986.53;;;1.79;86.24
29907;BME280;16776;50.958;10.994;2024-02-26T01:29:00;96982.34;;;1.77;85.81
29907;BME280;16776;50.958;10.994;2024-02-26T01:31:27;96984.91;;;1.75;86.16
29907;BME280;16776;50.958;10.994;2024-02-26T01:33:55;96979.00;;;1.75;86.16
29907;BME280;16776;50.958;10.994;2024-02-26T01:36:21;96983.31;;;1.71;85.94
29907;BME280;16776;50.958;10.994;2024-02-26T01:38:48;96988.41;;;1.70;86.24
29907;BME280;16776;50.958;10.994;2024-02-26T01:41:14;96985.03;;;1.69;86.09
29907;BME280;16776;50.958;10.994;2024-02-26T01:43:41;96988.41;;;1.68;86.62
29907;BME280;16776;50.958;10.994;2024-02-26T01:46:12;96986.69;;;1.70;86.50
29907;BME280;16776;50.958;10.994;2024-02-26T01:48:40;96981.66;;;1.67;86.69
29907;BME280;16776;50.958;10.994;2024-02-26T01:51:09;96979.09;;;1.69;86.82
29907;BME280;16776;50.958;10.994;2024-02-26T01:53:37;96985.06;;;1.66;86.31
29907;BME280;16776;50.958;10.994;2024-02-26T01:56:04;96995.22;;;1.66;86.09
29907;BME280;16776;50.958;10.994;2024-02-26T01:58:31;96990.19;;;1.65;86.56
29907;BME280;16776;50.958;10.994;2024-02-26T02:00:58;96991.88;;;1.64;86.47
29907;BME280;16776;50.958;10.994;2024-02-26T02:03:25;96997.00;;;1.61;86.36
29907;BME280;16776;50.958;10.994;2024-02-26T02:05:52;96997.06;;;1.58;86.17
29907;BME280;16776;50.958;10.994;2024-02-26T02:08:21;96994.53;;;1.58;87.15
29907;BME280;16776;50.958;10.994;2024-02-26T02:10:49;96999.66;;;1.54;86.63
29907;BME280;16776;50.958;10.994;2024-02-26T02:13:16;96999.72;;;1.52;86.41
29907;BME280;16776;50.958;10.994;2024-02-26T02:15:43;96987.91;;;1.50;86.96
29907;BME280;16776;50.958;10.994;2024-02-26T02:18:09;96993.00;;;1.48;86.75
29907;BME280;16776;50.958;10.994;2024-02-26T02:20:37;97000.56;;;1.51;87.03
29907;BME280;16776;50.958;10.994;2024-02-26T02:23:04;96998.06;;;1.50;86.68
29907;BME280;16776;50.958;10.994;2024-02-26T02:25:31;96997.22;;;1.49;86.63
29907;BME280;16776;50.958;10.994;2024-02-26T02:27:57;96994.69;;;1.48;86.71
29907;BME280;16776;50.958;10.994;2024-02-26T02:30:26;96993.00;;;1.48;86.95
29907;BME280;16776;50.958;10.994;2024-02-26T02:32:55;96995.56;;;1.47;86.76
29907;BME280;16776;50.958;10.994;2024-02-26T02:35:22;96990.53;;;1.45;86.19
29907;BME280;16776;50.958;10.994;2024-02-26T02:37:50;96992.22;;;1.46;86.54
29907;BME280;16776;50.958;10.994;2024-02-26T02:40:17;96994.78;;;1.41;86.62
29907;BME280;16776;50.958;10.994;2024-02-26T02:42:43;96993.97;;;1.41;86.65
29907;BME280;16776;50.958;10.994;2024-02-26T02:45:10;96988.09;;;1.39;86.46
29907;BME280;16776;50.958;10.994;2024-02-26T02:47:37;96995.69;;;1.39;86.66
29907;BME280;16776;50.958;10.994;2024-02-26T02:50:04;96991.50;;;1.36;86.47
29907;BME280;16776;50.958;10.994;2024-02-26T02:52:31;96996.59;;;1.35;86.29
29907;BME280;16776;50.958;10.994;2024-02-26T02:54:59;96999.97;;;1.35;86.60
29907;BME280;16776;50.958;10.994;2024-02-26T02:57:25;96996.66;;;1.32;86.34
29907;BME280;16776;50.958;10.994;2024-02-26T02:59:52;97004.28;;;1.30;86.64
29907;BME280;16776;50.958;10.994;2024-02-26T03:02:19;97004.31;;;1.29;86.81
29907;BME280;16776;50.958;10.994;2024-02-26T03:04:45;97006.03;;;1.27;86.68
29907;BME280;16776;50.958;10.994;2024-02-26T03:07:12;96951.66;;;0.92;87.13
29907;BME280;16776;50.958;10.994;2024-02-26T03:09:39;97006.09;;;1.24;86.89
29907;BME280;16776;50.958;10.994;2024-02-26T03:12:08;97005.22;;;1.25;86.98
29907;BME280;16776;50.958;10.994;2024-02-26T03:14:34;97006.94;;;1.23;87.14
29907;BME280;16776;50.958;10.994;2024-02-26T03:17:01;97011.22;;;1.21;87.16
29907;BME280;16776;50.958;10.994;2024-02-26T03:19:27;96955.09;;;0.88;86.71
29907;BME280;16776;50.958;10.994;2024-02-26T03:21:54;97001.97;;;1.15;87.15
29907;BME280;16776;50.958;10.994;2024-02-26T03:24:21;97009.50;;;1.21;87.08
29907;BME280;16776;50.958;10.994;2024-02-26T03:26:47;97006.16;;;1.19;87.17
29907;BME280;16776;50.958;10.994;2024-02-26T03:29:15;97015.38;;;1.23;87.09
29907;BME280;16776;50.958;10.994;2024-02-26T03:31:41;97012.88;;;1.22;87.03
29907;BME280;16776;50.958;10.994;2024-02-26T03:34:08;97011.22;;;1.21;87.25
29907;BME280;16776;50.958;10.994;2024-02-26T03:36:37;97004.47;;;1.20;87.13
29907;BME280;16776;50.958;10.994;2024-02-26T03:39:03;97011.22;;;1.21;87.52
29907;BME280;16776;50.958;10.994;2024-02-26T03:41:32;97015.41;;;1.22;87.13
29907;BME280;16776;50.958;10.994;2024-02-26T03:43:59;97009.53;;;1.20;87.30
29907;BME280;16776;50.958;10.994;2024-02-26T03:46:27;96955.88;;;0.90;86.84
29907;BME280;16776;50.958;10.994;2024-02-26T03:48:54;97008.69;;;1.19;87.11
29907;BME280;16776;50.958;10.994;2024-02-26T03:51:20;97001.94;;;1.20;87.73
29907;BME280;16776;50.958;10.994;2024-02-26T03:53:47;97005.31;;;1.19;87.41
29907;BME280;16776;50.958;10.994;2024-02-26T03:56:13;97007.84;;;1.19;87.63
29907;BME280;16776;50.958;10.994;2024-02-26T03:58:40;97007.00;;;1.18;87.47
29907;BME280;16776;50.958;10.994;2024-02-26T04:01:07;96998.56;;;1.18;87.26
29907;BME280;16776;50.958;10.994;2024-02-26T04:03:35;96997.72;;;1.19;87.49
29907;BME280;16776;50.958;10.994;2024-02-26T04:06:02;96996.88;;;1.17;87.82
29907;BME280;16776;50.958;10.994;2024-02-26T04:08:29;97012.09;;;1.17;87.62
29907;BME280;16776;50.958;10.994;2024-02-26T04:10:56;97013.78;;;1.18;87.85
29907;BME280;16776;50.958;10.994;2024-02-26T04:13:22;97010.41;;;1.17;87.65
29907;BME280;16776;50.958;10.994;2024-02-26T04:15:49;97004.50;;;1.17;87.69
29907;BME280;16776;50.958;10.994;2024-02-26T04:18:16;97003.66;;;1.16;87.79
29907;BME280;16776;50.958;10.994;2024-02-26T04:20:44;97006.19;;;1.16;87.45
29907;BME280;16776;50.958;10.994;2024-02-26T04:23:10;97006.28;;;1.12;87.54
29907;BME280;16776;50.958;10.994;2024-02-26T04:25:37;96996.97;;;1.11;87.66
29907;BME280;16776;50.958;10.994;2024-02-26T04:28:04;96995.31;;;1.10;87.73
29907;BME280;16776;50.958;10.994;2024-02-26T04:30:31;97007.13;;;1.09;87.72
29907;BME280;16776;50.958;10.994;2024-02-26T04:32:57;97001.22;;;1.09;87.80
29907;BME280;16776;50.958;10.994;2024-02-26T04:35:24;97009.72;;;1.08;87.58
29907;BME280;16776;50.958;10.994;2024-02-26T04:37:52;96999.53;;;1.09;88.04
29907;BME280;16776;50.958;10.994;2024-02-26T04:40:18;97009.72;;;1.08;88.02
29907;BME280;16776;50.958;10.994;2024-02-26T04:42:45;97009.69;;;1.09;87.97
29907;BME280;16776;50.958;10.994;2024-02-26T04:45:11;97002.13;;;1.08;88.29
29907;BME280;16776;50.958;10.994;2024-02-26T04:47:38;96997.84;;;1.08;88.11
29907;BME280;16776;50.958;10.994;2024-02-26T04:50:06;97003.75;;;1.10;88.26
29907;BME280;16776;50.958;10.994;2024-02-26T04:52:32;97003.75;;;1.10;88.44
29907;BME280;16776;50.958;10.994;2024-02-26T04:55:00;96991.06;;;1.12;88.45
29907;BME280;16776;50.958;10.994;2024-02-26T04:57:27;96998.69;;;1.10;88.76
29907;BME280;16776;50.958;10.994;2024-02-26T04:59:54;96996.16;;;1.10;88.80
29907;BME280;16776;50.958;10.994;2024-02-26T05:02:21;97007.13;;;1.11;88.81
29907;BME280;16776;50.958;10.994;2024-02-26T05:04:47;97005.41;;;1.13;88.73
29907;BME280;16776;50.958;10.994;2024-02-26T05:07:14;97007.94;;;1.13;88.76
29907;BME280;16776;50.958;10.994;2024-02-26T05:09:42;97001.13;;;1.15;88.80
29907;BME280;16776;50.958;10.994;2024-02-26T05:12:10;97008.69;;;1.19;88.76
29907;BME280;16776;50.958;10.994;2024-02-26T05:14:37;97012.09;;;1.18;88.99
29907;BME280;16776;50.958;10.994;2024-02-26T05:17:03;97017.16;;;1.20;88.56
29907;BME280;16776;50.958;10.994;2024-02-26T05:19:31;97018.84;;;1.19;88.32
29907;BME280;16776;50.958;10.994;2024-02-26T05:21:57;97022.25;;;1.17;88.21
29907;BME280;16776;50.958;10.994;2024-02-26T05:24:24;97023.16;;;1.14;88.38
29907;BME280;16776;50.958;10.994;2024-02-26T05:26:50;97017.25;;;1.12;88.34
29907;BME280;16776;50.958;10.994;2024-02-26T05:29:19;97024.03;;;1.10;88.20
29907;BME280;16776;50.958;10.994;2024-02-26T05:31:45;97025.81;;;1.03;87.73
29907;BME280;16776;50.958;10.994;2024-02-26T05:34:12;97026.75;;;0.98;87.25
29907;BME280;16776;50.958;10.994;2024-02-26T05:36:38;97018.41;;;0.91;87.50
29907;BME280;16776;50.958;10.994;2024-02-26T05:39:05;97028.59;;;0.85;87.76
29907;BME280;16776;50.958;10.994;2024-02-26T05:41:32;97027.84;;;0.79;87.81
29907;BME280;16776;50.958;10.994;2024-02-26T05:43:59;97023.63;;;0.76;89.18
29907;BME280;16776;50.958;10.994;2024-02-26T05:46:26;97024.38;;;0.87;92.18
29907;BME280;16776;50.958;10.994;2024-02-26T05:48:53;97020.75;;;1.02;92.09
29907;BME280;16776;50.958;10.994;2024-02-26T05:51:20;97018.09;;;1.13;91.14
29907;BME280;16776;50.958;10.994;2024-02-26T05:53:46;97022.97;;;1.26;90.60
29907;BME280;16776;50.958;10.994;2024-02-26T05:56:19;97024.50;;;1.35;89.87
29907;BME280;16776;50.958;10.994;2024-02-26T05:58:45;97023.59;;;1.39;89.60
29907;BME280;16776;50.958;10.994;2024-02-26T06:01:12;96990.03;;;1.22;89.10
29907;BME280;16776;50.958;10.994;2024-02-26T06:03:40;97026.03;;;1.45;89.37
29907;BME280;16776;50.958;10.994;2024-02-26T06:06:06;97029.44;;;1.44;89.40
29907;BME280;16776;50.958;10.994;2024-02-26T06:08:33;97036.19;;;1.45;88.69
29907;BME280;16776;50.958;10.994;2024-02-26T06:11:05;97042.03;;;1.47;88.89
29907;BME280;16776;50.958;10.994;2024-02-26T06:13:31;97053.19;;;1.40;88.86
29907;BME280;16776;50.958;10.994;2024-02-26T06:15:58;97048.97;;;1.37;88.78
29907;BME280;16776;50.958;10.994;2024-02-26T06:18:24;97047.31;;;1.35;88.83
29907;BME280;16776;50.958;10.994;2024-02-26T06:20:52;97053.25;;;1.34;88.81
29907;BME280;16776;50.958;10.994;2024-02-26T06:23:19;97062.63;;;1.29;89.02
29907;BME280;16776;50.958;10.994;2024-02-26T06:25:46;97055.09;;;1.26;88.68
29907;BME280;16776;50.958;10.994;2024-02-26T06:28:13;97063.53;;;1.25;89.06
29907;BME280;16776;50.958;10.994;2024-02-26T06:30:39;97065.25;;;1.23;89.02
29907;BME280;16776;50.958;10.994;2024-02-26T06:33:06;97072.91;;;1.20;88.95
29907;BME280;16776;50.958;10.994;2024-02-26T06:35:33;97071.25;;;1.19;89.23
29907;BME280;16776;50.958;10.994;2024-02-26T06:38:01;97078.00;;;1.20;89.26
29907;BME280;16776;50.958;10.994;2024-02-26T06:40:27;97080.53;;;1.18;89.13
29907;BME280;16776;50.958;10.994;2024-02-26T06:42:54;97081.38;;;1.19;89.56
29907;BME280;16776;50.958;10.994;2024-02-26T06:45:21;97093.22;;;1.20;89.58
29907;BME280;16776;50.958;10.994;2024-02-26T06:47:47;97094.03;;;1.20;89.21
29907;BME280;16776;50.958;10.994;2024-02-26T06:50:14;97098.28;;;1.20;89.42
29907;BME280;16776;50.958;10.994;2024-02-26T06:52:41;97098.22;;;1.21;89.73
29907;BME280;16776;50.958;10.994;2024-02-26T06:55:09;97102.44;;;1.24;89.45
29907;BME280;16776;50.958;10.994;2024-02-26T06:57:35;97094.00;;;1.23;89.60
29907;BME280;16776;50.958;10.994;2024-02-26T07:00:02;97091.44;;;1.25;89.94
29907;BME280;16776;50.958;10.994;2024-02-26T07:02:29;97085.47;;;1.27;89.97
29907;BME280;16776;50.958;10.994;2024-02-26T07:04:56;97099.81;;;1.30;90.13
29907;BME280;16776;50.958;10.994;2024-02-26T07:07:23;97107.38;;;1.33;90.09
29907;BME280;16776;50.958;10.994;2024-02-26T07:09:50;97099.72;;;1.36;89.95
29907;BME280;16776;50.958;10.994;2024-02-26T07:12:18;97108.94;;;1.41;90.63
29907;BME280;16776;50.958;10.994;2024-02-26T07:14:46;97108.91;;;1.43;90.04
29907;BME280;16776;50.958;10.994;2024-02-26T07:17:13;97114.78;;;1.47;90.76
29907;BME280;16776;50.958;10.994;2024-02-26T07:19:41;97119.78;;;1.51;90.39
29907;BME280;16776;50.958;10.994;2024-02-26T07:22:08;97116.34;;;1.55;90.49
29907;BME280;16776;50.958;10.994;2024-02-26T07:24:34;97113.72;;;1.60;91.23
29907;BME280;16776;50.958;10.994;2024-02-26T07:27:01;97115.34;;;1.65;91.44
29907;BME280;16776;50.958;10.994;2024-02-26T07:29:29;97113.50;;;1.73;91.54
29907;BME280;16776;50.958;10.994;2024-02-26T07:31:55;97116.03;;;1.76;91.11
29907;BME280;16776;50.958;10.994;2024-02-26T07:34:22;97122.69;;;1.83;91.24
29907;BME280;16776;50.958;10.994;2024-02-26T07:36:52;97122.56;;;1.90;90.99
29907;BME280;16776;50.958;10.994;2024-02-26T07:39:19;97130.94;;;1.95;90.41
29907;BME280;16776;50.958;10.994;2024-02-26T07:41:46;97130.94;;;1.96;90.65
29907;BME280;16776;50.958;10.994;2024-02-26T07:44:15;97131.72;;;1.98;90.36
29907;BME280;16776;50.958;10.994;2024-02-26T07:46:42;97133.38;;;2.01;90.60
29907;BME280;16776;50.958;10.994;2024-02-26T07:49:09;97126.59;;;2.01;90.88
29907;BME280;16776;50.958;10.994;2024-02-26T07:51:36;97130.00;;;2.02;90.85
29907;BME280;16776;50.958;10.994;2024-02-26T07:54:02;97131.63;;;2.04;91.01
29907;BME280;16776;50.958;10.994;2024-02-26T07:56:29;97132.44;;;2.06;90.65
29907;BME280;16776;50.958;10.994;2024-02-26T07:58:55;97129.91;;;2.05;90.78
29907;BME280;16776;50.958;10.994;2024-02-26T08:01:22;97139.16;;;2.10;90.96
29907;BME280;16776;50.958;10.994;2024-02-26T08:03:52;97144.16;;;2.13;90.13
29907;BME280;16776;50.958;10.994;2024-02-26T08:06:19;97142.41;;;2.17;90.55
29907;BME280;16776;50.958;10.994;2024-02-26T08:08:45;97139.84;;;2.20;90.48
29907;BME280;16776;50.958;10.994;2024-02-26T08:11:14;97143.13;;;2.25;90.87
29907;BME280;16776;50.958;10.994;2024-02-26T08:13:40;97142.25;;;2.26;90.76
29907;BME280;16776;50.958;10.994;2024-02-26T08:16:07;97151.53;;;2.29;91.15
29907;BME280;16776;50.958;10.994;2024-02-26T08:18:34;97152.31;;;2.32;91.74
29907;BME280;16776;50.958;10.994;2024-02-26T08:21:02;97153.03;;;2.39;91.84
29907;BME280;16776;50.958;10.994;2024-02-26T08:23:29;97151.31;;;2.41;91.44
29907;BME280;16776;50.958;10.994;2024-02-26T08:25:56;97145.28;;;2.46;92.04
29907;BME280;16776;50.958;10.994;2024-02-26T08:28:23;97144.34;;;2.50;92.02
29907;BME280;16776;50.958;10.994;2024-02-26T08:30:50;97142.56;;;2.55;91.73
29907;BME280;16776;50.958;10.994;2024-02-26T08:33:16;97142.47;;;2.61;91.85
29907;BME280;16776;50.958;10.994;2024-02-26T08:35:43;97139.81;;;2.68;92.35
29907;BME280;16776;50.958;10.994;2024-02-26T08:38:11;97138.78;;;2.76;92.07
29907;BME280;16776;50.958;10.994;2024-02-26T08:40:37;97135.28;;;2.82;92.21
29907;BME280;16776;50.958;10.994;2024-02-26T08:43:04;97134.28;;;2.89;92.65
29907;BME280;16776;50.958;10.994;2024-02-26T08:45:30;97140.91;;;2.97;92.81
29907;BME280;16776;50.958;10.994;2024-02-26T08:47:57;97132.28;;;3.04;92.08
29907;BME280;16776;50.958;10.994;2024-02-26T08:50:24;97122.81;;;3.11;92.76
29907;BME280;16776;50.958;10.994;2024-02-26T08:52:51;97128.63;;;3.18;92.67
29907;BME280;16776;50.958;10.994;2024-02-26T08:55:20;97137.81;;;3.23;92.52
29907;BME280;16776;50.958;10.994;2024-02-26T08:57:46;97144.53;;;3.26;92.39
29907;BME280;16776;50.958;10.994;2024-02-26T09:00:14;97147.03;;;3.29;91.63
29907;BME280;16776;50.958;10.994;2024-02-26T09:02:43;97153.81;;;3.30;92.07
29907;BME280;16776;50.958;10.994;2024-02-26T09:05:09;97151.25;;;3.31;91.81
29907;BME280;16776;50.958;10.994;2024-02-26T09:07:36;97152.88;;;3.34;92.20
29907;BME280;16776;50.958;10.994;2024-02-26T09:10:03;97158.78;;;3.36;92.91
29907;BME280;16776;50.958;10.994;2024-02-26T09:12:31;97153.63;;;3.39;93.02
29907;BME280;16776;50.958;10.994;2024-02-26T09:14:58;97153.63;;;3.39;93.10
29907;BME280;16776;50.958;10.994;2024-02-26T09:17:24;97157.78;;;3.43;92.99
29907;BME280;16776;50.958;10.994;2024-02-26T09:19:51;97161.13;;;3.45;93.15
29907;BME280;16776;50.958;10.994;2024-02-26T09:22:18;97156.81;;;3.49;92.30
29907;BME280;16776;50.958;10.994;2024-02-26T09:24:44;97156.72;;;3.52;92.91
29907;BME280;16776;50.958;10.994;2024-02-26T09:27:11;97155.88;;;3.53;92.74
29907;BME280;16776;50.958;10.994;2024-02-26T09:29:39;97157.50;;;3.57;92.97
29907;BME280;16776;50.958;10.994;2024-02-26T09:32:06;97152.34;;;3.58;91.84
29907;BME280;16776;50.958;10.994;2024-02-26T09:34:32;97148.94;;;3.59;92.03
29907;BME280;16776;50.958;10.994;2024-02-26T09:36:59;97159.06;;;3.62;92.12
29907;BME280;16776;50.958;10.994;2024-02-26T09:39:26;97156.44;;;3.65;92.73
29907;BME280;16776;50.958;10.994;2024-02-26T09:41:53;97166.53;;;3.70;92.47
29907;BME280;16776;50.958;10.994;2024-02-26T09:44:19;97165.56;;;3.74;93.17
29907;BME280;16776;50.958;10.994;2024-02-26T09:46:48;97163.69;;;3.82;92.89
29907;BME280;16776;50.958;10.994;2024-02-26T09:49:16;97164.44;;;3.85;93.22
29907;BME280;16776;50.958;10.994;2024-02-26T09:51:43;97163.41;;;3.94;93.78
29907;BME280;16776;50.958;10.994;2024-02-26T09:54:10;97152.25;;;3.98;94.18
29907;BME280;16776;50.958;10.994;2024-02-26T09:56:39;97164.63;;;4.13;93.65
29907;BME280;16776;50.958;10.994;2024-02-26T09:59:06;97160.13;;;4.23;94.02
29907;BME280;16776;50.958;10.994;2024-02-26T10:01:37;97157.25;;;4.37;94.86
29907;BME280;16776;50.958;10.994;2024-02-26T10:04:08;97161.25;;;4.47;95.04
29907;BME280;16776;50.958;10.994;2024-02-26T10:06:36;97155.75;;;4.60;95.06
29907;BME280;16776;50.958;10.994;2024-02-26T10:09:03;97158.75;;;4.76;95.53
29907;BME280;16776;50.958;10.994;2024-02-26T10:11:35;97161.63;;;4.95;95.14
29907;BME280;16776;50.958;10.994;2024-02-26T10:14:02;97149.31;;;5.11;95.11
29907;BME280;16776;50.958;10.994;2024-02-26T10:16:29;97164.16;;;5.27;94.59
29907;BME280;16776;50.958;10.994;2024-02-26T10:18:55;97160.38;;;5.40;94.58
29907;BME280;16776;50.958;10.994;2024-02-26T10:21:23;97167.63;;;5.54;94.29
29907;BME280;16776;50.958;10.994;2024-02-26T10:23:50;97164.84;;;5.62;93.71
29907;BME280;16776;50.958;10.994;2024-02-26T10:26:16;97176.59;;;5.67;93.73
29907;BME280;16776;50.958;10.994;2024-02-26T10:28:44;97178.91;;;5.75;93.50
29907;BME280;16776;50.958;10.994;2024-02-26T10:31:11;97173.66;;;5.79;93.47
29907;BME280;16776;50.958;10.994;2024-02-26T10:33:38;97179.44;;;5.84;93.27
29907;BME280;16776;50.958;10.994;2024-02-26T10:36:06;97177.69;;;5.87;93.55
29907;BME280;16776;50.958;10.994;2024-02-26T10:38:35;97180.91;;;5.93;93.10
29907;BME280;16776;50.958;10.994;2024-02-26T10:41:02;97170.03;;;5.87;93.12
29907;BME280;16776;50.958;10.994;2024-02-26T10:43:29;97177.47;;;5.94;93.26
29907;BME280;16776;50.958;10.994;2024-02-26T10:45:56;97169.72;;;5.96;93.60
29907;BME280;16776;50.958;10.994;2024-02-26T10:48:22;97177.31;;;5.99;93.24
29907;BME280;16776;50.958;10.994;2024-02-26T10:50:49;97170.44;;;6.01;93.28
29907;BME280;16776;50.958;10.994;2024-02-26T10:53:17;97176.22;;;6.06;93.51
29907;BME280;16776;50.958;10.994;2024-02-26T10:55:49;97177.75;;;6.11;93.42
29907;BME280;16776;50.958;10.994;2024-02-26T10:58:18;97179.34;;;6.14;93.11
29907;BME280;16776;50.958;10.994;2024-02-26T11:00:46;97180.94;;;6.18;93.11
29907;BME280;16776;50.958;10.994;2024-02-26T11:03:14;97182.50;;;6.22;93.22
29907;BME280;16776;50.958;10.994;2024-02-26T11:05:43;97187.53;;;6.25;93.16
29907;BME280;16776;50.958;10.994;2024-02-26T11:08:11;97183.16;;;6.29;93.59
29907;BME280;16776;50.958;10.994;2024-02-26T11:10:38;97185.72;;;6.29;93.71
29907;BME280;16776;50.958;10.994;2024-02-26T11:13:09;97183.78;;;6.35;93.31
29907;BME280;16776;50.958;10.994;2024-02-26T11:15:37;97183.94;;;6.31;92.99
29907;BME280;16776;50.958;10.994;2024-02-26T11:18:04;97195.84;;;6.32;93.25
29907;BME280;16776;50.958;10.994;2024-02-26T11:20:32;97193.22;;;6.33;93.49
29907;BME280;16776;50.958;10.994;2024-02-26T11:22:59;97199.25;;;6.32;93.69
29907;BME280;16776;50.958;10.994;2024-02-26T11:25:26;97195.72;;;6.35;93.74
29907;BME280;16776;50.958;10.994;2024-02-26T11:27:55;97190.50;;;6.39;93.52
29907;BME280;16776;50.958;10.994;2024-02-26T11:30:28;97192.13;;;6.40;93.28
29907;BME280;16776;50.958;10.994;2024-02-26T11:32:56;97191.38;;;6.38;93.29
29907;BME280;16776;50.958;10.994;2024-02-26T11:35:24;97179.72;;;6.30;93.20
29907;BME280;16776;50.958;10.994;2024-02-26T11:37:54;97188.69;;;6.41;93.45
29907;BME280;16776;50.958;10.994;2024-02-26T11:40:22;97187.97;;;6.38;93.44
29907;BME280;16776;50.958;10.994;2024-02-26T11:42:50;97187.84;;;6.41;93.40
29907;BME280;16776;50.958;10.994;2024-02-26T11:45:52;97190.09;;;6.51;93.89
29907;BME280;16776;50.958;10.994;2024-02-26T11:48:23;97197.88;;;6.47;93.41
29907;BME280;16776;50.958;10.994;2024-02-26T11:50:51;97206.34;;;6.49;94.02
29907;BME280;16776;50.958;10.994;2024-02-26T11:53:26;97200.97;;;6.56;93.59
29907;BME280;16776;50.958;10.994;2024-02-26T11:56:21;97211.09;;;6.59;93.57
29907;BME280;16776;50.958;10.994;2024-02-26T11:58:48;97195.59;;;6.39;93.74
29907;BME280;16776;50.958;10.994;2024-02-26T12:01:40;97213.72;;;6.58;93.20
29907;BME280;16776;50.958;10.994;2024-02-26T12:04:08;97218.28;;;6.48;93.27
29907;BME280;16776;50.958;10.994;2024-02-26T12:06:50;97221.53;;;6.53;94.03
29907;BME280;16776;50.958;10.994;2024-02-26T12:09:35;97217.25;;;6.54;94.04
29907;BME280;16776;50.958;10.994;2024-02-26T12:12:04;97219.22;;;6.46;94.17
29907;BME280;16776;50.958;10.994;2024-02-26T12:14:33;97206.56;;;6.43;93.28
29907;BME280;16776;50.958;10.994;2024-02-26T12:17:02;97198.72;;;6.47;93.79
29907;BME280;16776;50.958;10.994;2024-02-26T12:19:32;97198.84;;;6.44;93.58
29907;BME280;16776;50.958;10.994;2024-02-26T12:21:59;97191.16;;;6.44;93.49
29907;BME280;16776;50.958;10.994;2024-02-26T12:24:25;97195.41;;;6.45;93.46
29907;BME280;16776;50.958;10.994;2024-02-26T12:26:52;97202.16;;;6.46;94.49
29907;BME280;16776;50.958;10.994;2024-02-26T12:29:18;97199.59;;;6.46;94.35
29907;BME280;16776;50.958;10.994;2024-02-26T12:31:45;97207.28;;;6.46;93.25
29907;BME280;16776;50.958;10.994;2024-02-26T12:34:13;97208.91;;;6.49;93.34
29907;BME280;16776;50.958;10.994;2024-02-26T12:36:42;97208.06;;;6.48;94.39
29907;BME280;16776;50.958;10.994;2024-02-26T12:39:09;97212.25;;;6.51;94.13
29907;BME280;16776;50.958;10.994;2024-02-26T12:41:37;97210.41;;;6.54;93.75
29907;BME280;16776;50.958;10.994;2024-02-26T12:44:04;97213.84;;;6.53;93.87
29907;BME280;16776;50.958;10.994;2024-02-26T12:46:32;97221.53;;;6.53;94.16
29907;BME280;16776;50.958;10.994;2024-02-26T12:48:59;97228.31;;;6.54;94.62
29907;BME280;16776;50.958;10.994;2024-02-26T12:51:27;97221.44;;;6.56;93.90
29907;BME280;16776;50.958;10.994;2024-02-26T12:53:54;97231.63;;;6.58;94.90
29907;BME280;16776;50.958;10.994;2024-02-26T12:56:22;97234.13;;;6.59;94.64
29907;BME280;16776;50.958;10.994;2024-02-26T12:58:50;97237.38;;;6.64;94.87
29907;BME280;16776;50.958;10.994;2024-02-26T13:01:18;97238.25;;;6.63;94.87